createdAt,value
2018-02-23T00:00:51.171Z,0
2018-02-23T00:12:08.427Z,0
2018-02-23T00:39:54.203Z,0
2018-02-23T00:41:34.123Z,0
2018-02-23T00:42:28.116Z,0
2018-02-23T00:43:14.459Z,0
2018-02-23T01:01:41.621Z,0
2018-02-23T01:02:36.058Z,0
2018-02-23T01:04:11.509Z,0
2018-02-23T01:04:56.301Z,0
2018-02-23T01:05:36.642Z,0
2018-02-23T01:06:17.081Z,0
2018-02-23T01:06:57.457Z,0
2018-02-23T01:07:37.871Z,0
2018-02-23T01:08:18.286Z,0
2018-02-23T01:08:58.709Z,0
2018-02-23T01:09:39.211Z,0
2018-02-23T01:10:19.601Z,0
2018-02-23T01:10:59.882Z,0
2018-02-23T01:11:40.280Z,0
2018-02-23T01:12:20.686Z,0
2018-02-23T01:13:01.135Z,0
2018-02-23T01:13:41.551Z,0
2018-02-23T01:14:21.976Z,0
2018-02-23T01:15:02.445Z,0
2018-02-23T01:15:42.786Z,0
2018-02-23T01:16:23.195Z,0
2018-02-23T01:17:03.559Z,0
2018-02-23T01:17:43.958Z,0
2018-02-23T01:18:24.388Z,0
2018-02-23T01:19:04.783Z,0
2018-02-23T01:19:45.578Z,0
2018-02-23T01:20:25.988Z,0
2018-02-23T01:21:06.346Z,0
2018-02-23T01:21:46.722Z,0
2018-02-23T01:22:27.164Z,0
2018-02-23T01:23:07.552Z,0
2018-02-23T01:23:47.897Z,0
2018-02-23T01:24:28.302Z,0
2018-02-23T01:25:08.701Z,0
2018-02-23T01:25:49.168Z,0
2018-02-23T01:26:29.514Z,0
2018-02-23T01:27:09.919Z,0
2018-02-23T01:27:50.327Z,0
2018-02-23T01:28:30.789Z,0
2018-02-23T01:29:11.141Z,0
2018-02-23T01:29:51.562Z,0
2018-02-23T01:30:31.969Z,0
2018-02-23T01:31:13.471Z,0
2018-02-23T01:31:53.918Z,0
2018-02-23T01:32:34.312Z,0
2018-02-23T01:33:14.732Z,0
2018-02-23T01:33:55.154Z,0
2018-02-23T01:34:35.584Z,0
2018-02-23T01:35:15.994Z,0
2018-02-23T01:35:56.387Z,0
2018-02-23T01:36:36.849Z,0
2018-02-23T01:37:17.170Z,0
2018-02-23T01:37:57.575Z,0
2018-02-23T01:38:37.989Z,0
2018-02-23T01:39:18.406Z,0
2018-02-23T01:39:58.813Z,0
2018-02-23T01:40:39.214Z,0
2018-02-23T01:41:19.576Z,0
2018-02-23T01:42:00.033Z,0
2018-02-23T01:42:40.362Z,0
2018-02-23T01:43:20.762Z,0
2018-02-23T01:44:01.198Z,0
2018-02-23T01:44:41.545Z,0
2018-02-23T01:45:21.949Z,0
2018-02-23T01:46:02.369Z,0
2018-02-23T01:46:42.839Z,0
2018-02-23T01:47:23.212Z,0
2018-02-23T01:48:03.618Z,0
2018-02-23T01:48:44.100Z,0
2018-02-23T01:49:24.452Z,0
2018-02-23T01:50:04.859Z,0
2018-02-23T01:50:45.211Z,0
2018-02-23T01:51:25.597Z,0
2018-02-23T01:52:06.018Z,0
2018-02-23T01:52:46.475Z,0
2018-02-23T01:53:26.838Z,0
2018-02-23T01:54:07.260Z,0
2018-02-23T01:54:47.686Z,0
2018-02-23T01:55:28.053Z,0
2018-02-23T01:56:08.447Z,0
2018-02-23T01:56:48.894Z,0
2018-02-23T01:57:29.289Z,0
2018-02-23T01:58:09.743Z,0
2018-02-23T01:58:50.132Z,0
2018-02-23T01:59:30.529Z,0
2018-02-23T02:00:10.933Z,0
2018-02-23T02:00:51.345Z,0
2018-02-23T02:01:31.717Z,0
2018-02-23T02:02:12.168Z,0
2018-02-23T02:02:52.597Z,0
2018-02-23T02:03:32.948Z,0
2018-02-23T02:04:13.383Z,0
2018-02-23T02:04:53.736Z,0
2018-02-23T02:05:34.165Z,0
2018-02-23T02:06:14.521Z,0
2018-02-23T02:06:54.927Z,0
2018-02-23T02:07:35.319Z,0
2018-02-23T02:08:15.705Z,0
2018-02-23T02:08:56.068Z,0
2018-02-23T02:09:36.489Z,0
2018-02-23T02:10:16.944Z,0
2018-02-23T02:10:57.265Z,0
2018-02-23T02:11:37.695Z,0
2018-02-23T02:12:18.090Z,0
2018-02-23T02:12:58.484Z,0
2018-02-23T02:13:38.873Z,0
2018-02-23T02:14:19.335Z,0
2018-02-23T02:14:59.698Z,0
2018-02-23T02:15:40.131Z,0
2018-02-23T02:16:20.577Z,0
2018-02-23T02:17:00.932Z,0
2018-02-23T02:17:41.375Z,0
2018-02-23T02:18:21.730Z,0
2018-02-23T02:26:34.966Z,0
2018-02-23T02:32:18.012Z,0
2018-02-23T02:34:46.470Z,0
2018-02-23T02:35:37.347Z,0
2018-02-23T02:38:16.307Z,0
2018-02-23T02:39:06.207Z,0
2018-02-23T02:44:33.036Z,0
2018-02-23T02:49:07.153Z,0
2018-02-23T02:51:53.503Z,0
2018-02-23T02:54:40.261Z,0
2018-02-23T03:00:20.998Z,0
2018-02-23T03:12:21.861Z,0
2018-02-23T03:13:02.758Z,0
2018-02-23T03:15:31.160Z,0
2018-02-23T03:17:04.771Z,0
2018-02-23T03:17:45.200Z,0
2018-02-23T03:18:25.590Z,0
2018-02-23T03:19:06.041Z,0
2018-02-23T03:19:46.453Z,0
2018-02-23T03:20:26.868Z,0
2018-02-23T03:21:07.194Z,0
2018-02-23T03:21:47.589Z,0
2018-02-23T03:22:27.986Z,0
2018-02-23T03:23:08.416Z,0
2018-02-23T03:23:48.794Z,0
2018-02-23T03:24:29.220Z,0
2018-02-23T03:25:09.621Z,0
2018-02-23T03:25:50.018Z,0
2018-02-23T03:26:30.424Z,0
2018-02-23T03:27:10.867Z,0
2018-02-23T03:27:51.288Z,0
2018-02-23T03:28:31.685Z,0
2018-02-23T03:29:12.013Z,0
2018-02-23T03:29:52.525Z,0
2018-02-23T03:30:32.831Z,0
2018-02-23T03:31:13.229Z,0
2018-02-23T03:31:53.605Z,0
2018-02-23T03:32:33.985Z,0
2018-02-23T03:33:14.382Z,0
2018-02-23T03:33:54.789Z,0
2018-02-23T03:34:35.158Z,0
2018-02-23T03:35:15.545Z,0
2018-02-23T03:35:55.969Z,0
2018-02-23T03:36:36.356Z,0
2018-02-23T03:37:16.744Z,0
2018-02-23T03:37:57.181Z,0
2018-02-23T03:38:37.541Z,0
2018-02-23T03:39:17.964Z,0
2018-02-23T03:39:58.361Z,0
2018-02-23T03:40:38.755Z,0
2018-02-23T03:41:19.183Z,0
2018-02-23T03:41:59.568Z,0
2018-02-23T03:42:39.993Z,0
2018-02-23T03:43:20.349Z,0
2018-02-23T03:44:00.729Z,0
2018-02-23T03:46:23.238Z,0
2018-02-23T03:47:17.304Z,0
2018-02-23T03:51:48.568Z,0
2018-02-23T03:52:28.305Z,0
2018-02-23T03:53:08.677Z,0
2018-02-23T03:53:49.070Z,0
2018-02-23T03:54:29.471Z,0
2018-02-23T03:55:09.882Z,0
2018-02-23T03:55:50.228Z,0
2018-02-23T03:56:30.668Z,0
2018-02-23T03:57:11.045Z,0
2018-02-23T03:57:51.524Z,0
2018-02-23T03:58:31.872Z,0
2018-02-23T03:59:12.250Z,0
2018-02-23T03:59:52.644Z,0
2018-02-23T04:45:35.552Z,0
2018-02-23T04:46:24.327Z,0
2018-02-23T04:47:12.246Z,0
2018-02-23T04:48:00.595Z,0
2018-02-23T04:48:49.331Z,0
2018-02-23T04:49:38.313Z,0
2018-02-23T04:50:26.204Z,0
2018-02-23T04:51:14.830Z,0
2018-02-23T04:52:03.467Z,0
2018-02-23T04:52:52.315Z,0
2018-02-23T04:53:41.501Z,0
2018-02-23T04:54:29.589Z,0
2018-02-23T04:55:18.224Z,0
2018-02-23T04:56:07.151Z,0
2018-02-23T04:56:55.366Z,0
2018-02-23T04:57:45.392Z,0
2018-02-23T04:58:33.468Z,0
2018-02-23T04:59:22.002Z,0
2018-02-23T05:00:10.895Z,0
2018-02-23T05:01:00.017Z,0
2018-02-23T05:01:48.730Z,0
2018-02-23T05:02:36.871Z,0
2018-02-23T05:03:25.429Z,0
2018-02-23T05:07:49.475Z,0
2018-02-23T05:08:43.075Z,0
2018-02-23T05:11:19.613Z,0
2018-02-23T05:15:22.802Z,0
2018-02-23T05:16:11.192Z,0
2018-02-23T05:17:01.402Z,0
2018-02-23T05:17:48.770Z,0
2018-02-23T05:20:33.128Z,0
2018-02-23T05:21:14.213Z,0
2018-02-23T05:21:55.124Z,0
2018-02-23T05:22:35.652Z,0
2018-02-23T05:23:16.494Z,0
2018-02-23T05:23:57.411Z,0
2018-02-23T05:24:38.124Z,0
2018-02-23T05:25:19.199Z,0
2018-02-23T05:25:59.778Z,0
2018-02-23T05:26:40.361Z,0
2018-02-23T05:27:20.691Z,0
2018-02-23T05:28:01.176Z,0
2018-02-23T05:28:41.479Z,0
2018-02-23T05:29:22.278Z,0
2018-02-23T05:30:02.916Z,0
2018-02-23T05:30:44.300Z,0
2018-02-23T05:31:24.628Z,0
2018-02-23T05:32:05.077Z,0
2018-02-23T05:32:46.296Z,0
2018-02-23T05:33:28.100Z,0
2018-02-23T05:34:09.268Z,0
2018-02-23T05:34:49.988Z,0
2018-02-23T05:35:30.497Z,0
2018-02-23T05:36:11.157Z,0
2018-02-23T05:36:52.733Z,0
2018-02-23T05:37:33.196Z,0
2018-02-23T05:38:13.903Z,0
2018-02-23T05:38:55.125Z,0
2018-02-23T05:39:36.108Z,0
2018-02-23T05:40:16.682Z,0
2018-02-23T05:40:57.424Z,0
2018-02-23T05:41:37.940Z,0
2018-02-23T05:42:18.130Z,0
2018-02-23T05:42:59.051Z,0
2018-02-23T05:43:39.499Z,0
2018-02-23T05:44:20.257Z,0
2018-02-23T05:45:00.606Z,0
2018-02-23T05:45:41.441Z,0
2018-02-23T05:46:22.078Z,0
2018-02-23T05:47:02.719Z,0
2018-02-23T05:47:43.142Z,0
2018-02-23T05:48:24.421Z,0
2018-02-23T05:49:04.379Z,0
2018-02-23T05:49:44.952Z,0
2018-02-23T05:50:26.570Z,0
2018-02-23T05:51:07.465Z,0
2018-02-23T05:51:47.532Z,0
2018-02-23T05:52:29.848Z,0
2018-02-23T05:53:10.877Z,0
2018-02-23T05:53:51.689Z,0
2018-02-23T05:54:32.582Z,0
2018-02-23T05:55:13.473Z,0
2018-02-23T05:55:54.254Z,0
2018-02-23T05:56:36.337Z,0
2018-02-23T05:57:16.925Z,0
2018-02-23T05:57:57.897Z,0
2018-02-23T05:58:38.664Z,0
2018-02-23T05:59:19.839Z,0
2018-02-23T06:00:00.748Z,0
2018-02-23T06:00:41.218Z,0
2018-02-23T06:01:23.448Z,0
2018-02-23T06:02:04.932Z,0
2018-02-23T06:02:45.222Z,0
2018-02-23T06:03:26.252Z,0
2018-02-23T06:04:06.897Z,0
2018-02-23T06:04:48.425Z,0
2018-02-23T06:05:29.237Z,0
2018-02-23T06:06:09.313Z,0
2018-02-23T06:06:51.537Z,0
2018-02-23T06:07:32.739Z,0
2018-02-23T06:08:13.628Z,0
2018-02-23T06:08:54.370Z,0
2018-02-23T06:09:36.313Z,0
2018-02-23T06:10:17.514Z,0
2018-02-23T06:10:57.995Z,0
2018-02-23T06:11:39.109Z,0
2018-02-23T06:12:20.286Z,0
2018-02-23T06:13:01.097Z,0
2018-02-23T06:13:42.988Z,0
2018-02-23T06:14:23.499Z,0
2018-02-23T06:15:05.221Z,0
2018-02-23T06:15:45.792Z,0
2018-02-23T06:16:27.219Z,0
2018-02-23T06:17:08.550Z,0
2018-02-23T06:17:49.119Z,0
2018-02-23T06:18:31.163Z,0
2018-02-23T06:19:14.052Z,0
2018-02-23T06:19:56.392Z,0
2018-02-23T06:20:37.328Z,0
2018-02-23T06:21:18.938Z,0
2018-02-23T06:22:00.918Z,0
2018-02-23T06:22:42.406Z,0
2018-02-23T06:23:23.279Z,0
2018-02-23T06:24:04.944Z,0
2018-02-23T06:24:45.790Z,0
2018-02-23T06:25:27.130Z,0
2018-02-23T06:26:09.743Z,0
2018-02-23T06:26:50.965Z,0
2018-02-23T06:27:33.699Z,0
2018-02-23T06:28:16.155Z,0
2018-02-23T06:28:57.333Z,0
2018-02-23T06:29:39.434Z,0
2018-02-23T06:30:19.979Z,0
2018-02-23T06:31:01.373Z,0
2018-02-23T06:31:43.333Z,0
2018-02-23T06:32:25.608Z,5
2018-02-23T06:33:06.256Z,5
2018-02-23T08:02:11.857Z,70
2018-02-23T08:03:06.854Z,65
2018-02-23T08:03:47.833Z,65
2018-02-23T08:04:29.306Z,65
2018-02-23T08:05:13.241Z,65
2018-02-23T08:05:56.241Z,65
2018-02-23T08:06:38.781Z,65
2018-02-23T08:07:19.481Z,60
2018-02-23T08:08:01.925Z,65
2018-02-23T08:08:42.600Z,60
2018-02-23T08:09:24.243Z,60
2018-02-23T08:10:05.566Z,60
2018-02-23T08:10:45.359Z,60
2018-02-23T08:11:27.384Z,60
2018-02-23T08:12:07.279Z,60
2018-02-23T08:12:48.085Z,60
2018-02-23T08:13:29.360Z,60
2018-02-23T08:14:12.351Z,60
2018-02-23T08:14:52.763Z,60
2018-02-23T08:15:33.361Z,60
2018-02-23T08:16:14.246Z,60
2018-02-23T08:16:55.090Z,60
2018-02-23T08:17:35.905Z,60
2018-02-23T08:18:17.237Z,60
2018-02-23T08:18:57.766Z,60
2018-02-23T08:19:38.145Z,60
2018-02-23T08:20:19.751Z,60
2018-02-23T08:21:00.515Z,60
2018-02-23T08:21:41.448Z,60
2018-02-23T08:27:55.556Z,60
2018-02-23T08:28:39.641Z,60
2018-02-23T08:29:21.244Z,60
2018-02-23T08:30:02.217Z,60
2018-02-23T08:30:43.509Z,60
2018-02-23T08:31:24.005Z,60
2018-02-23T08:32:04.856Z,60
2018-02-23T08:32:46.293Z,60
2018-02-23T08:33:26.932Z,60
2018-02-23T08:34:08.281Z,60
2018-02-23T08:34:49.529Z,60
2018-02-23T08:35:30.382Z,60
2018-02-23T08:36:11.216Z,60
2018-02-23T08:36:53.278Z,60
2018-02-23T08:37:34.717Z,60
2018-02-23T08:38:15.025Z,60
2018-02-23T08:38:56.722Z,60
2018-02-23T08:39:37.722Z,60
2018-02-23T08:40:18.185Z,60
2018-02-23T08:40:59.206Z,60
2018-02-23T08:41:39.841Z,60
2018-02-23T08:42:21.423Z,60
2018-02-23T08:43:02.856Z,60
2018-02-23T08:43:43.985Z,60
2018-02-23T08:44:24.905Z,60
2018-02-23T08:45:05.969Z,60
2018-02-23T08:45:46.346Z,60
2018-02-23T08:46:29.253Z,60
2018-02-23T08:47:10.108Z,60
2018-02-23T08:47:53.207Z,60
2018-02-23T08:48:33.150Z,60
2018-02-23T08:49:14.708Z,60
2018-02-23T08:50:03.394Z,60
2018-02-23T08:52:32.079Z,60
2018-02-23T08:53:12.669Z,60
2018-02-23T08:53:54.187Z,60
2018-02-23T08:54:34.830Z,60
2018-02-23T08:55:16.725Z,60
2018-02-23T08:55:57.175Z,60
2018-02-23T08:56:38.705Z,60
2018-02-23T08:57:22.278Z,60
2018-02-23T08:58:01.280Z,60
2018-02-23T08:58:41.586Z,60
2018-02-23T08:59:22.421Z,60
2018-02-23T09:00:04.079Z,60
2018-02-23T09:00:44.634Z,60
2018-02-23T09:01:25.174Z,60
2018-02-23T09:02:06.270Z,60
2018-02-23T09:02:48.357Z,60
2018-02-23T09:04:07.293Z,60
2018-02-23T09:04:50.947Z,60
2018-02-23T09:05:32.150Z,60
2018-02-23T09:06:12.159Z,60
2018-02-23T09:06:53.851Z,60
2018-02-23T09:07:34.843Z,60
2018-02-23T09:08:14.980Z,60
2018-02-23T09:08:56.650Z,60
2018-02-23T09:09:37.691Z,60
2018-02-23T09:10:18.665Z,60
2018-02-23T09:10:58.512Z,60
2018-02-23T09:11:39.699Z,60
2018-02-23T09:12:21.227Z,60
2018-02-23T09:13:02.658Z,60
2018-02-23T09:13:44.249Z,60
2018-02-23T09:14:25.424Z,60
2018-02-23T09:15:05.854Z,60
2018-02-23T09:15:47.173Z,60
2018-02-23T09:16:28.244Z,60
2018-02-23T09:17:09.613Z,65
2018-02-23T09:17:51.472Z,60
2018-02-23T09:18:31.112Z,60
2018-02-23T09:19:12.816Z,60
2018-02-23T09:19:53.251Z,60
2018-02-23T09:20:35.435Z,60
2018-02-23T09:21:16.772Z,60
2018-02-23T09:21:57.286Z,60
2018-02-23T09:22:39.865Z,65
2018-02-23T09:23:21.163Z,60
2018-02-23T09:24:02.690Z,60
2018-02-23T09:24:43.144Z,60
2018-02-23T09:25:24.704Z,60
2018-02-23T09:26:06.449Z,60
2018-02-23T09:26:48.580Z,60
2018-02-23T09:30:39.311Z,60
2018-02-23T09:31:20.517Z,60
2018-02-23T09:32:00.740Z,60
2018-02-23T09:32:42.071Z,60
2018-02-23T09:33:23.160Z,60
2018-02-23T09:34:03.922Z,60
2018-02-23T09:34:47.080Z,60
2018-02-23T09:35:28.321Z,60
2018-02-23T09:36:10.056Z,60
2018-02-23T09:36:53.417Z,60
2018-02-23T09:37:35.123Z,60
2018-02-23T09:38:16.430Z,60
2018-02-23T09:38:57.362Z,60
2018-02-23T09:39:40.338Z,65
2018-02-23T09:40:22.433Z,60
2018-02-23T09:41:02.576Z,60
2018-02-23T09:41:44.923Z,60
2018-02-23T09:42:30.420Z,60
2018-02-23T09:43:11.227Z,60
2018-02-23T09:43:52.065Z,60
2018-02-23T09:44:33.414Z,60
2018-02-23T09:45:16.413Z,60
2018-02-23T09:45:57.888Z,60
2018-02-23T09:46:39.302Z,60
2018-02-23T09:47:20.024Z,60
2018-02-23T09:48:03.030Z,60
2018-02-23T09:48:43.994Z,60
2018-02-23T09:49:38.219Z,60
2018-02-23T09:54:31.141Z,60
2018-02-23T09:57:12.114Z,60
2018-02-23T09:58:02.257Z,60
2018-02-23T09:58:42.584Z,60
2018-02-23T09:59:24.748Z,60
2018-02-23T10:00:06.277Z,60
2018-02-23T10:00:46.193Z,60
2018-02-23T10:01:27.947Z,60
2018-02-23T10:02:08.891Z,60
2018-02-23T10:02:49.671Z,60
2018-02-23T10:03:30.722Z,60
2018-02-23T10:04:12.433Z,60
2018-02-23T10:04:52.183Z,60
2018-02-23T10:05:33.732Z,60
2018-02-23T10:06:14.697Z,60
2018-02-23T10:06:56.676Z,60
2018-02-23T10:45:16.296Z,55
2018-02-23T10:45:56.287Z,55
2018-02-23T10:46:36.676Z,55
2018-02-23T10:47:18.555Z,55
2018-02-23T10:48:02.391Z,55
2018-02-23T10:48:43.036Z,55
2018-02-23T10:49:24.441Z,55
2018-02-23T10:50:06.099Z,55
2018-02-23T10:50:46.039Z,55
2018-02-23T10:52:53.569Z,55
2018-02-23T10:53:34.493Z,55
2018-02-23T10:54:17.849Z,55
2018-02-23T10:54:58.900Z,55
2018-02-23T10:55:40.462Z,55
2018-02-23T10:56:21.979Z,55
2018-02-23T10:57:03.361Z,55
2018-02-23T10:57:44.388Z,55
2018-02-23T10:58:26.261Z,55
2018-02-23T10:59:06.858Z,55
2018-02-23T10:59:47.838Z,55
2018-02-23T11:00:28.333Z,55
2018-02-23T11:01:10.543Z,55
2018-02-23T11:01:50.830Z,55
2018-02-23T11:02:33.590Z,55
2018-02-23T11:03:14.377Z,55
2018-02-23T11:03:55.642Z,55
2018-02-23T11:04:44.058Z,55
2018-02-23T11:05:24.883Z,55
2018-02-23T11:06:05.460Z,55
2018-02-23T11:06:47.722Z,55
2018-02-23T11:07:28.352Z,55
2018-02-23T11:08:16.445Z,55
2018-02-23T11:09:10.407Z,55
2018-02-23T11:09:56.150Z,55
2018-02-23T11:10:37.615Z,55
2018-02-23T11:11:18.559Z,55
2018-02-23T11:11:59.531Z,55
2018-02-23T11:12:39.850Z,55
2018-02-23T11:13:22.850Z,55
2018-02-23T11:14:03.359Z,55
2018-02-23T11:14:44.792Z,55
2018-02-23T11:15:24.954Z,55
2018-02-23T11:16:05.922Z,55
2018-02-23T11:16:49.915Z,55
2018-02-23T11:17:31.048Z,55
2018-02-23T11:18:13.760Z,55
2018-02-23T11:19:10.774Z,60
2018-02-23T11:19:53.356Z,55
2018-02-23T11:20:34.988Z,55
2018-02-23T11:21:17.137Z,55
2018-02-23T11:21:58.869Z,60
2018-02-23T11:22:40.746Z,55
2018-02-23T11:23:20.590Z,55
2018-02-23T11:24:00.984Z,55
2018-02-23T11:24:41.803Z,55
2018-02-23T11:25:23.174Z,55
2018-02-23T11:26:04.617Z,55
2018-02-23T11:26:45.131Z,55
2018-02-23T11:27:26.067Z,55
2018-02-23T11:28:06.510Z,55
2018-02-23T11:28:46.949Z,55
2018-02-23T11:29:28.329Z,55
2018-02-23T11:30:08.706Z,55
2018-02-23T11:32:37.950Z,50
2018-02-23T11:33:21.236Z,50
2018-02-23T11:34:01.671Z,50
2018-02-23T11:34:42.122Z,50
2018-02-23T11:35:22.496Z,50
2018-02-23T11:36:02.902Z,50
2018-02-23T11:36:43.280Z,50
2018-02-23T11:37:24.002Z,50
2018-02-23T11:38:04.337Z,50
2018-02-23T11:38:45.270Z,50
2018-02-23T11:39:25.678Z,50
2018-02-23T11:40:06.015Z,50
2018-02-23T11:40:46.507Z,50
2018-02-23T11:41:26.920Z,50
2018-02-23T11:42:07.736Z,50
2018-02-23T11:42:48.068Z,50
2018-02-23T11:43:28.697Z,50
2018-02-23T11:44:11.172Z,50
2018-02-23T11:44:51.605Z,50
2018-02-23T11:45:32.043Z,50
2018-02-23T11:46:12.404Z,50
2018-02-23T11:46:52.814Z,50
2018-02-23T11:47:33.231Z,50
2018-02-23T11:48:13.678Z,50
2018-02-23T11:48:54.054Z,50
2018-02-23T11:49:34.486Z,50
2018-02-23T11:50:14.889Z,50
2018-02-23T11:50:55.294Z,50
2018-02-23T11:51:35.744Z,50
2018-02-23T11:52:16.166Z,50
2018-02-23T11:52:56.899Z,50
2018-02-23T11:53:37.278Z,50
2018-02-23T11:54:17.686Z,50
2018-02-23T11:54:58.049Z,50
2018-02-23T11:55:38.529Z,50
2018-02-23T11:56:18.830Z,50
2018-02-23T11:56:59.388Z,50
2018-02-23T11:57:40.840Z,50
2018-02-23T11:58:21.219Z,50
2018-02-23T11:59:01.662Z,50
2018-02-23T11:59:42.079Z,50
2018-02-23T12:00:22.488Z,50
2018-02-23T12:01:02.878Z,50
2018-02-23T12:01:43.335Z,50
2018-02-23T12:02:23.654Z,50
2018-02-23T12:03:05.124Z,50
2018-02-23T12:03:45.453Z,50
2018-02-23T12:04:25.727Z,50
2018-02-23T12:05:06.198Z,50
2018-02-23T12:05:46.556Z,50
2018-02-23T12:06:26.986Z,50
2018-02-23T12:07:07.389Z,50
2018-02-23T12:07:47.806Z,50
2018-02-23T12:08:28.236Z,50
2018-02-23T12:09:08.713Z,50
2018-02-23T12:09:49.085Z,50
2018-02-23T12:10:29.459Z,50
2018-02-23T12:11:09.876Z,50
2018-02-23T12:11:50.225Z,50
2018-02-23T12:12:30.622Z,50
2018-02-23T12:13:11.024Z,50
2018-02-23T12:13:51.375Z,50
2018-02-23T12:14:31.844Z,50
2018-02-23T12:15:12.302Z,50
2018-02-23T12:15:52.662Z,50
2018-02-23T12:16:33.220Z,50
2018-02-23T12:17:13.610Z,50
2018-02-23T12:17:54.045Z,50
2018-02-23T12:18:34.536Z,50
2018-02-23T12:19:15.055Z,50
2018-02-23T12:19:55.396Z,50
2018-02-23T12:20:35.873Z,50
2018-02-23T12:21:16.225Z,50
2018-02-23T12:21:56.644Z,50
2018-02-23T12:22:36.975Z,50
2018-02-23T12:23:17.453Z,50
2018-02-23T12:23:57.788Z,50
2018-02-23T12:24:38.352Z,50
2018-02-23T12:25:18.661Z,50
2018-02-23T12:25:59.477Z,50
2018-02-23T12:26:39.999Z,50
2018-02-23T12:27:20.502Z,50
2018-02-23T12:28:00.896Z,50
2018-02-23T12:28:41.577Z,50
2018-02-23T12:29:21.781Z,50
2018-02-23T12:30:02.186Z,50
2018-02-23T12:30:42.714Z,50
2018-02-23T12:31:23.031Z,50
2018-02-23T12:32:03.466Z,50
2018-02-23T12:32:43.913Z,50
2018-02-23T12:33:24.338Z,50
2018-02-23T12:34:04.758Z,50
2018-02-23T12:34:45.167Z,50
2018-02-23T12:35:25.588Z,50
2018-02-23T12:36:06.116Z,50
2018-02-23T12:36:46.529Z,50
2018-02-23T12:37:27.939Z,50
2018-02-23T12:38:12.038Z,50
2018-02-23T12:38:52.609Z,50
2018-02-23T12:39:32.890Z,50
2018-02-23T12:40:13.232Z,50
2018-02-23T12:40:53.703Z,50
2018-02-23T12:41:34.123Z,50
2018-02-23T12:42:14.617Z,50
2018-02-23T12:42:55.484Z,50
2018-02-23T12:43:36.463Z,50
2018-02-23T12:44:17.713Z,50
2018-02-23T12:44:58.137Z,50
2018-02-23T12:45:38.521Z,50
2018-02-23T12:46:19.041Z,50
2018-02-23T12:46:59.444Z,50
2018-02-23T12:47:39.845Z,50
2018-02-23T12:48:20.267Z,50
2018-02-23T12:49:00.653Z,50
2018-02-23T12:49:41.110Z,50
2018-02-23T12:50:23.453Z,50
2018-02-23T12:51:02.834Z,50
2018-02-23T12:51:43.251Z,50
2018-02-23T12:52:23.660Z,50
2018-02-23T12:53:04.114Z,50
2018-02-23T12:53:44.495Z,50
2018-02-23T12:54:24.870Z,50
2018-02-23T12:55:05.385Z,50
2018-02-23T12:55:45.712Z,50
2018-02-23T12:56:26.235Z,50
2018-02-23T12:57:07.194Z,50
2018-02-23T12:57:47.687Z,50
2018-02-23T12:58:28.093Z,50
2018-02-23T12:59:08.477Z,50
2018-02-23T12:59:48.894Z,50
2018-02-23T13:00:29.250Z,50
2018-02-23T13:01:09.612Z,50
2018-02-23T13:01:50.121Z,50
2018-02-23T13:02:30.563Z,50
2018-02-23T13:03:10.897Z,50
2018-02-23T13:03:51.287Z,50
2018-02-23T13:04:31.754Z,50
2018-02-23T13:05:12.178Z,50
2018-02-23T13:05:52.517Z,50
2018-02-23T13:06:32.925Z,50
2018-02-23T13:07:13.499Z,50
2018-02-23T13:07:53.897Z,50
2018-02-23T13:08:34.341Z,50
2018-02-23T13:09:14.916Z,50
2018-02-23T13:09:55.171Z,50
2018-02-23T13:10:35.550Z,50
2018-02-23T13:11:16.052Z,50
2018-02-23T13:11:56.487Z,50
2018-02-23T13:12:36.923Z,50
2018-02-23T13:13:17.237Z,50
2018-02-23T13:13:57.690Z,50
2018-02-23T13:14:38.139Z,50
2018-02-23T13:15:18.573Z,50
2018-02-23T13:15:59.006Z,50
2018-02-23T13:16:39.449Z,50
2018-02-23T13:17:19.875Z,50
2018-02-23T13:18:00.215Z,50
2018-02-23T13:18:40.595Z,50
2018-02-23T13:19:21.017Z,50
2018-02-23T13:20:01.406Z,50
2018-02-23T13:20:41.820Z,50
2018-02-23T13:21:22.263Z,50
2018-02-23T13:22:02.626Z,50
2018-02-23T13:22:42.942Z,50
2018-02-23T13:23:23.476Z,50
2018-02-23T13:24:04.139Z,50
2018-02-23T13:24:44.597Z,50
2018-02-23T13:25:25.474Z,50
2018-02-23T13:26:05.578Z,50
2018-02-23T13:26:45.996Z,50
2018-02-23T13:27:26.314Z,50
2018-02-23T13:28:06.766Z,50
2018-02-23T13:28:47.149Z,50
2018-02-23T13:29:27.556Z,50
2018-02-23T13:30:07.989Z,50
2018-02-23T13:30:48.323Z,50
2018-02-23T13:31:28.706Z,50
2018-02-23T13:32:09.174Z,50
2018-02-23T13:32:49.558Z,45
2018-02-23T13:33:29.985Z,45
2018-02-23T13:34:10.314Z,45
2018-02-23T13:34:50.747Z,45
2018-02-23T13:35:31.191Z,45
2018-02-23T13:36:11.748Z,45
2018-02-23T13:36:52.055Z,45
2018-02-23T13:37:32.463Z,45
2018-02-23T13:38:12.830Z,45
2018-02-23T13:38:53.308Z,45
2018-02-23T13:39:33.735Z,45
2018-02-23T13:40:14.158Z,45
2018-02-23T13:40:54.570Z,45
2018-02-23T13:41:34.949Z,45
2018-02-23T13:42:15.372Z,45
2018-02-23T13:42:55.753Z,45
2018-02-23T13:43:36.172Z,45
2018-02-23T13:44:17.344Z,45
2018-02-23T13:44:57.715Z,45
2018-02-23T13:45:38.167Z,45
2018-02-23T13:46:18.481Z,45
2018-02-23T13:46:58.960Z,45
2018-02-23T13:47:39.385Z,45
2018-02-23T13:48:19.992Z,45
2018-02-23T13:49:00.326Z,45
2018-02-23T13:49:40.784Z,45
2018-02-23T13:50:21.312Z,45
2018-02-23T13:51:01.628Z,45
2018-02-23T13:51:42.104Z,45
2018-02-23T13:52:22.504Z,45
2018-02-23T13:53:02.867Z,45
2018-02-23T13:53:43.276Z,45
2018-02-23T13:54:23.589Z,45
2018-02-23T13:55:04.117Z,45
2018-02-23T13:55:44.549Z,45
2018-02-23T13:56:24.921Z,45
2018-02-23T13:57:05.410Z,45
2018-02-23T13:57:45.823Z,45
2018-02-23T13:58:26.258Z,45
2018-02-23T13:59:06.653Z,45
2018-02-23T13:59:47.045Z,45
2018-02-23T14:00:27.421Z,45
2018-02-23T14:01:07.850Z,45
2018-02-23T14:01:48.254Z,45
2018-02-23T14:02:28.668Z,45
2018-02-23T14:03:09.015Z,45
2018-02-23T14:03:49.427Z,45
2018-02-23T14:04:29.923Z,45
2018-02-23T14:05:11.393Z,45
2018-02-23T14:05:51.760Z,45
2018-02-23T14:06:32.149Z,45
2018-02-23T14:07:13.645Z,45
2018-02-23T14:07:54.026Z,45
2018-02-23T14:08:34.482Z,45
2018-02-23T14:09:14.834Z,45
2018-02-23T14:09:55.268Z,45
2018-02-23T14:10:35.662Z,45
2018-02-23T14:11:16.004Z,45
2018-02-23T14:11:56.400Z,45
2018-02-23T14:12:36.840Z,45
2018-02-23T14:13:17.190Z,45
2018-02-23T14:13:57.606Z,45
2018-02-23T14:14:38.008Z,45
2018-02-23T14:15:18.430Z,45
2018-02-23T14:15:58.860Z,40
2018-02-23T14:16:39.348Z,45
2018-02-23T14:17:19.742Z,45
2018-02-23T14:18:00.113Z,40
2018-02-23T14:18:40.526Z,40
2018-02-23T14:19:21.020Z,40
2018-02-23T14:20:01.450Z,40
2018-02-23T14:20:41.850Z,40
2018-02-23T14:21:22.207Z,40
2018-02-23T14:22:02.648Z,40
2018-02-23T14:22:43.103Z,40
2018-02-23T14:23:23.656Z,40
2018-02-23T14:24:04.024Z,40
2018-02-23T14:24:44.413Z,40
2018-02-23T14:25:24.828Z,40
2018-02-23T14:26:05.285Z,40
2018-02-23T14:26:46.245Z,40
2018-02-23T14:27:26.623Z,40
2018-02-23T14:28:07.118Z,40
2018-02-23T14:28:47.450Z,40
2018-02-23T14:29:27.856Z,40
2018-02-23T14:30:08.306Z,40
2018-02-23T14:30:48.916Z,40
2018-02-23T14:31:30.415Z,40
2018-02-23T14:32:11.031Z,40
2018-02-23T14:32:51.194Z,40
2018-02-23T14:33:31.776Z,40
2018-02-23T14:34:12.172Z,40
2018-02-23T14:34:52.531Z,40
2018-02-23T14:35:32.934Z,40
2018-02-23T14:36:13.289Z,40
2018-02-23T14:36:53.694Z,40
2018-02-23T14:37:34.097Z,40
2018-02-23T14:38:14.736Z,40
2018-02-23T14:38:55.228Z,40
2018-02-23T14:39:35.763Z,40
2018-02-23T14:40:16.063Z,40
2018-02-23T14:40:56.439Z,40
2018-02-23T14:41:36.847Z,40
2018-02-23T14:42:17.802Z,40
2018-02-23T14:42:58.131Z,40
2018-02-23T14:43:38.496Z,40
2018-02-23T14:44:18.848Z,40
2018-02-23T14:44:59.310Z,40
2018-02-23T14:45:39.684Z,40
2018-02-23T14:46:20.027Z,40
2018-02-23T14:47:00.443Z,40
2018-02-23T14:47:40.874Z,40
2018-02-23T14:48:21.278Z,40
2018-02-23T14:49:01.733Z,40
2018-02-23T14:49:42.163Z,40
2018-02-23T14:50:22.532Z,40
2018-02-23T14:51:02.987Z,40
2018-02-23T14:51:43.431Z,40
2018-02-23T14:52:23.884Z,40
2018-02-23T14:53:04.296Z,40
2018-02-23T14:53:44.713Z,40
2018-02-23T14:54:25.179Z,40
2018-02-23T14:55:05.533Z,40
2018-02-23T14:55:45.941Z,40
2018-02-23T14:56:26.313Z,40
2018-02-23T14:57:06.705Z,40
2018-02-23T14:57:47.177Z,40
2018-02-23T14:58:27.486Z,40
2018-02-23T14:59:07.852Z,40
2018-02-23T14:59:48.442Z,40
2018-02-23T15:00:28.767Z,40
2018-02-23T15:01:09.148Z,40
2018-02-23T15:01:49.547Z,40
2018-02-23T15:02:29.918Z,40
2018-02-23T15:03:10.307Z,40
2018-02-23T15:03:50.664Z,40
2018-02-23T15:04:31.189Z,40
2018-02-23T15:05:11.658Z,40
2018-02-23T15:05:52.177Z,40
2018-02-23T15:06:32.555Z,40
2018-02-23T15:07:13.142Z,40
2018-02-23T15:07:53.786Z,40
2018-02-23T15:08:34.177Z,40
2018-02-23T15:09:14.542Z,40
2018-02-23T15:09:55.003Z,40